sensor_id;sensor_type;location;lat;lon;timestamp;pressure;altitude;pressure_sealevel;temperature;humidity
50977;BME280;36992;48.200;12.418;2023-02-28T00:01:14;97253.88;;;3.04;43.07
50977;BME280;36992;48.200;12.418;2023-02-28T00:03:41;97253.03;;;3.03;43.42
50977;BME280;36992;48.200;12.418;2023-02-28T00:06:09;97248.53;;;3.04;43.26
50977;BME280;36992;48.200;12.418;2023-02-28T00:08:36;97250.38;;;3.03;43.11
50977;BME280;36992;48.200;12.418;2023-02-28T00:11:03;97245.06;;;3.03;42.96
50977;BME280;36992;48.200;12.418;2023-02-28T00:13:30;97248.53;;;3.04;43.37
50977;BME280;36992;48.200;12.418;2023-02-28T00:16:01;97245.63;;;3.05;43.09
50977;BME280;36992;48.200;12.418;2023-02-28T00:18:28;97246.91;;;3.03;43.33
50977;BME280;36992;48.200;12.418;2023-02-28T00:20:55;97249.81;;;3.01;43.21
50977;BME280;36992;48.200;12.418;2023-02-28T00:23:22;97246.09;;;3.02;43.37
50977;BME280;36992;48.200;12.418;2023-02-28T00:25:49;97249.81;;;3.01;43.37
50977;BME280;36992;48.200;12.418;2023-02-28T00:28:16;97242.84;;;3.00;43.21
50977;BME280;36992;48.200;12.418;2023-02-28T00:30:43;97242.06;;;3.00;43.40
50977;BME280;36992;48.200;12.418;2023-02-28T00:33:10;97237.53;;;3.00;43.00
50977;BME280;36992;48.200;12.418;2023-02-28T00:35:36;97232.19;;;3.00;43.83
50977;BME280;36992;48.200;12.418;2023-02-28T00:38:03;97231.41;;;3.00;43.41
50977;BME280;36992;48.200;12.418;2023-02-28T00:40:31;97241.00;;;3.01;43.82
50977;BME280;36992;48.200;12.418;2023-02-28T00:42:57;97234.06;;;3.00;43.42
50977;BME280;36992;48.200;12.418;2023-02-28T00:45:24;97234.84;;;3.00;44.07
50977;BME280;36992;48.200;12.418;2023-02-28T00:47:50;97230.59;;;2.99;43.94
50977;BME280;36992;48.200;12.418;2023-02-28T00:50:17;97232.19;;;3.00;43.50
50977;BME280;36992;48.200;12.418;2023-02-28T00:52:44;97225.25;;;2.99;43.51
50977;BME280;36992;48.200;12.418;2023-02-28T00:55:11;97221.81;;;2.99;43.49
50977;BME280;36992;48.200;12.418;2023-02-28T00:57:38;97216.22;;;3.00;43.76
50977;BME280;36992;48.200;12.418;2023-02-28T01:00:06;97216.69;;;2.97;43.84
50977;BME280;36992;48.200;12.418;2023-02-28T01:02:33;97216.69;;;2.97;43.73
50977;BME280;36992;48.200;12.418;2023-02-28T01:05:00;97202.81;;;2.95;43.52
50977;BME280;36992;48.200;12.418;2023-02-28T01:07:26;97208.16;;;2.95;43.48
50977;BME280;36992;48.200;12.418;2023-02-28T01:09:53;97204.09;;;2.92;43.92
50977;BME280;36992;48.200;12.418;2023-02-28T01:12:19;97200.03;;;2.90;43.63
50977;BME280;36992;48.200;12.418;2023-02-28T01:14:47;97198.41;;;2.89;44.10
50977;BME280;36992;48.200;12.418;2023-02-28T01:17:14;97204.19;;;2.86;43.84
50977;BME280;36992;48.200;12.418;2023-02-28T01:19:40;97201.75;;;2.84;44.20
50977;BME280;36992;48.200;12.418;2023-02-28T01:22:07;97196.06;;;2.80;44.18
50977;BME280;36992;48.200;12.418;2023-02-28T01:24:33;97197.34;;;2.78;44.27
50977;BME280;36992;48.200;12.418;2023-02-28T01:27:00;97197.59;;;2.76;44.28
50977;BME280;36992;48.200;12.418;2023-02-28T01:29:26;97197.00;;;2.74;44.57
50977;BME280;36992;48.200;12.418;2023-02-28T01:31:54;97196.19;;;2.74;44.31
50977;BME280;36992;48.200;12.418;2023-02-28T01:34:22;97192.16;;;2.71;44.48
50977;BME280;36992;48.200;12.418;2023-02-28T01:36:48;97190.53;;;2.70;44.68
50977;BME280;36992;48.200;12.418;2023-02-28T01:39:15;97188.09;;;2.68;44.60
50977;BME280;36992;48.200;12.418;2023-02-28T01:41:41;97192.59;;;2.68;44.77
50977;BME280;36992;48.200;12.418;2023-02-28T01:47:09;97184.59;;;2.68;44.60
50977;BME280;36992;48.200;12.418;2023-02-28T01:49:36;97191.19;;;2.65;44.82
50977;BME280;36992;48.200;12.418;2023-02-28T01:52:03;97189.84;;;2.63;44.79
50977;BME280;36992;48.200;12.418;2023-02-28T01:54:31;97180.81;;;2.64;44.90
50977;BME280;36992;48.200;12.418;2023-02-28T01:57:04;97178.38;;;2.62;44.79
50977;BME280;36992;48.200;12.418;2023-02-28T01:59:35;97185.53;;;2.62;44.93
50977;BME280;36992;48.200;12.418;2023-02-28T02:02:04;97193.97;;;2.59;45.03
50977;BME280;36992;48.200;12.418;2023-02-28T02:04:37;97186.56;;;2.61;44.78
50977;BME280;36992;48.200;12.418;2023-02-28T02:07:06;97173.97;;;2.56;45.34
50977;BME280;36992;48.200;12.418;2023-02-28T02:09:33;97189.09;;;2.55;45.25
50977;BME280;36992;48.200;12.418;2023-02-28T02:12:08;97188.09;;;2.56;45.19
50977;BME280;36992;48.200;12.418;2023-02-28T02:14:51;97189.09;;;2.55;45.21
50977;BME280;36992;48.200;12.418;2023-02-28T02:17:27;97187.47;;;2.54;45.13
50977;BME280;36992;48.200;12.418;2023-02-28T02:23:07;97184.25;;;2.52;45.10
50977;BME280;36992;48.200;12.418;2023-02-28T02:25:42;97187.97;;;2.51;45.35
50977;BME280;36992;48.200;12.418;2023-02-28T02:28:39;97185.28;;;2.51;45.36
50977;BME280;36992;48.200;12.418;2023-02-28T02:31:28;97187.97;;;2.51;45.03
50977;BME280;36992;48.200;12.418;2023-02-28T02:34:29;97187.34;;;2.49;45.02
50977;BME280;36992;48.200;12.418;2023-02-28T02:37:09;97185.16;;;2.46;45.48
50977;BME280;36992;48.200;12.418;2023-02-28T02:39:42;97185.38;;;2.45;45.64
50977;BME280;36992;48.200;12.418;2023-02-28T02:42:15;97182.94;;;2.43;45.73
50977;BME280;36992;48.200;12.418;2023-02-28T02:44:48;97179.72;;;2.41;45.76
50977;BME280;36992;48.200;12.418;2023-02-28T02:47:18;97183.19;;;2.41;45.95
50977;BME280;36992;48.200;12.418;2023-02-28T02:49:50;97177.88;;;2.41;45.98
50977;BME280;36992;48.200;12.418;2023-02-28T02:52:20;97174.41;;;2.41;45.93
50977;BME280;36992;48.200;12.418;2023-02-28T02:54:48;97173.81;;;2.39;46.19
50977;BME280;36992;48.200;12.418;2023-02-28T02:57:22;97177.06;;;2.41;46.07
50977;BME280;36992;48.200;12.418;2023-02-28T02:59:50;97178.09;;;2.40;46.00
50977;BME280;36992;48.200;12.418;2023-02-28T03:02:20;97177.63;;;2.43;45.85
50977;BME280;36992;48.200;12.418;2023-02-28T03:04:52;97179.50;;;2.42;45.75
50977;BME280;36992;48.200;12.418;2023-02-28T03:07:19;97178.09;;;2.40;45.62
50977;BME280;36992;48.200;12.418;2023-02-28T03:09:51;97177.28;;;2.39;46.02
50977;BME280;36992;48.200;12.418;2023-02-28T03:12:18;97181.44;;;2.35;46.20
50977;BME280;36992;48.200;12.418;2023-02-28T03:14:56;97181.19;;;2.37;45.90
50977;BME280;36992;48.200;12.418;2023-02-28T03:20:35;97178.53;;;2.37;45.74
50977;BME280;36992;48.200;12.418;2023-02-28T03:23:10;97176.91;;;2.36;45.81
50977;BME280;36992;48.200;12.418;2023-02-28T03:25:47;97183.28;;;2.35;45.93
50977;BME280;36992;48.200;12.418;2023-02-28T03:28:24;97177.75;;;2.36;45.97
50977;BME280;36992;48.200;12.418;2023-02-28T03:30:54;97177.06;;;2.41;45.31
50977;BME280;36992;48.200;12.418;2023-02-28T03:33:25;97171.03;;;2.34;46.03
50977;BME280;36992;48.200;12.418;2023-02-28T03:35:58;97171.25;;;2.32;45.95
50977;BME280;36992;48.200;12.418;2023-02-28T03:38:29;97169.84;;;2.29;45.88
50977;BME280;36992;48.200;12.418;2023-02-28T03:41:01;97178.88;;;2.28;45.94
50977;BME280;36992;48.200;12.418;2023-02-28T03:43:34;97176.22;;;2.28;46.16
50977;BME280;36992;48.200;12.418;2023-02-28T03:46:06;97175.38;;;2.28;46.07
50977;BME280;36992;48.200;12.418;2023-02-28T03:48:39;97180.97;;;2.26;45.95
50977;BME280;36992;48.200;12.418;2023-02-28T03:51:09;97174.81;;;2.26;46.13
50977;BME280;36992;48.200;12.418;2023-02-28T03:53:42;97183.00;;;2.24;46.20
50977;BME280;36992;48.200;12.418;2023-02-28T03:56:13;97181.38;;;2.23;46.14
50977;BME280;36992;48.200;12.418;2023-02-28T03:58:46;97184.88;;;2.24;46.22
50977;BME280;36992;48.200;12.418;2023-02-28T04:01:19;97185.09;;;2.22;46.05
50977;BME280;36992;48.200;12.418;2023-02-28T04:03:46;97184.97;;;2.17;46.19
50977;BME280;36992;48.200;12.418;2023-02-28T04:06:16;97180.69;;;2.16;46.40
50977;BME280;36992;48.200;12.418;2023-02-28T04:08:43;97186.47;;;2.13;46.40
50977;BME280;36992;48.200;12.418;2023-02-28T04:11:20;97183.34;;;2.16;46.14
50977;BME280;36992;48.200;12.418;2023-02-28T04:13:47;97185.84;;;2.11;46.46
50977;BME280;36992;48.200;12.418;2023-02-28T04:16:14;97184.03;;;2.11;46.42
50977;BME280;36992;48.200;12.418;2023-02-28T04:18:41;97185.84;;;2.11;46.16
50977;BME280;36992;48.200;12.418;2023-02-28T04:21:10;97185.84;;;2.11;46.31
50977;BME280;36992;48.200;12.418;2023-02-28T04:23:38;97192.78;;;2.12;46.17
50977;BME280;36992;48.200;12.418;2023-02-28T04:26:04;97185.28;;;2.09;46.46
50977;BME280;36992;48.200;12.418;2023-02-28T04:28:31;97187.94;;;2.09;46.33
50977;BME280;36992;48.200;12.418;2023-02-28T04:31:00;97187.72;;;2.10;46.42
50977;BME280;36992;48.200;12.418;2023-02-28T04:33:26;97192.44;;;2.08;46.44
50977;BME280;36992;48.200;12.418;2023-02-28T04:36:00;97192.78;;;2.12;46.28
50977;BME280;36992;48.200;12.418;2023-02-28T04:38:28;97193.25;;;2.09;46.57
50977;BME280;36992;48.200;12.418;2023-02-28T04:40:58;97201.81;;;2.11;46.33
50977;BME280;36992;48.200;12.418;2023-02-28T04:43:25;97196.72;;;2.09;46.17
50977;BME280;36992;48.200;12.418;2023-02-28T04:45:52;97197.53;;;2.10;46.54
50977;BME280;36992;48.200;12.418;2023-02-28T04:48:19;97195.91;;;2.09;46.57
50977;BME280;36992;48.200;12.418;2023-02-28T04:50:46;97191.38;;;2.09;46.57
50977;BME280;36992;48.200;12.418;2023-02-28T04:53:12;97200.41;;;2.08;46.81
50977;BME280;36992;48.200;12.418;2023-02-28T04:55:38;97197.53;;;2.10;46.55
50977;BME280;36992;48.200;12.418;2023-02-28T04:58:07;97196.72;;;2.09;46.54
50977;BME280;36992;48.200;12.418;2023-02-28T05:00:33;97194.28;;;2.08;46.70
50977;BME280;36992;48.200;12.418;2023-02-28T05:03:00;97204.94;;;2.08;46.53
50977;BME280;36992;48.200;12.418;2023-02-28T05:05:26;97199.63;;;2.08;46.69
50977;BME280;36992;48.200;12.418;2023-02-28T05:07:53;97209.41;;;2.07;46.69
50977;BME280;36992;48.200;12.418;2023-02-28T05:10:20;97211.03;;;2.08;46.44
50977;BME280;36992;48.200;12.418;2023-02-28T05:12:47;97212.66;;;2.09;46.89
50977;BME280;36992;48.200;12.418;2023-02-28T05:15:16;97213.03;;;2.13;46.50
50977;BME280;36992;48.200;12.418;2023-02-28T05:17:43;97217.53;;;2.12;46.63
50977;BME280;36992;48.200;12.418;2023-02-28T05:20:10;97215.69;;;2.13;46.47
50977;BME280;36992;48.200;12.418;2023-02-28T05:22:38;97215.09;;;2.11;46.54
50977;BME280;36992;48.200;12.418;2023-02-28T05:25:05;97218.34;;;2.13;46.55
50977;BME280;36992;48.200;12.418;2023-02-28T05:27:33;97225.28;;;2.14;46.41
50977;BME280;36992;48.200;12.418;2023-02-28T05:29:59;97233.28;;;2.14;46.38
50977;BME280;36992;48.200;12.418;2023-02-28T05:32:29;97226.09;;;2.14;46.93
50977;BME280;36992;48.200;12.418;2023-02-28T05:34:56;97232.22;;;2.15;46.62
50977;BME280;36992;48.200;12.418;2023-02-28T05:37:22;97227.69;;;2.15;46.52
50977;BME280;36992;48.200;12.418;2023-02-28T05:39:49;97224.03;;;2.17;46.54
50977;BME280;36992;48.200;12.418;2023-02-28T05:42:15;97229.09;;;2.18;46.41
50977;BME280;36992;48.200;12.418;2023-02-28T05:44:42;97226.44;;;2.18;46.54
50977;BME280;36992;48.200;12.418;2023-02-28T05:47:08;97225.44;;;2.19;46.46
50977;BME280;36992;48.200;12.418;2023-02-28T05:49:36;97226.00;;;2.21;46.36
50977;BME280;36992;48.200;12.418;2023-02-28T05:52:02;97229.09;;;2.18;46.29
50977;BME280;36992;48.200;12.418;2023-02-28T05:54:29;97231.75;;;2.18;46.49
50977;BME280;36992;48.200;12.418;2023-02-28T05:56:55;97230.97;;;2.18;46.51
50977;BME280;36992;48.200;12.418;2023-02-28T05:59:22;97242.41;;;2.18;46.23
50977;BME280;36992;48.200;12.418;2023-02-28T06:01:48;97232.59;;;2.19;46.11
50977;BME280;36992;48.200;12.418;2023-02-28T06:04:16;97245.31;;;2.17;46.42
50977;BME280;36992;48.200;12.418;2023-02-28T06:06:46;97240.78;;;2.17;46.36
50977;BME280;36992;48.200;12.418;2023-02-28T06:09:12;97249.78;;;2.16;46.23
50977;BME280;36992;48.200;12.418;2023-02-28T06:11:39;97250.84;;;2.15;46.50
50977;BME280;36992;48.200;12.418;2023-02-28T06:14:05;97248.19;;;2.15;46.33
50977;BME280;36992;48.200;12.418;2023-02-28T06:16:33;97251.88;;;2.14;46.52
50977;BME280;36992;48.200;12.418;2023-02-28T06:19:02;97257.19;;;2.14;46.72
50977;BME280;36992;48.200;12.418;2023-02-28T06:21:29;97263.75;;;2.11;46.70
50977;BME280;36992;48.200;12.418;2023-02-28T06:23:58;97266.78;;;2.15;46.45
50977;BME280;36992;48.200;12.418;2023-02-28T06:26:25;97269.44;;;2.15;46.48
50977;BME280;36992;48.200;12.418;2023-02-28T06:28:52;97270.25;;;2.15;46.48
50977;BME280;36992;48.200;12.418;2023-02-28T06:31:18;97272.69;;;2.17;46.63
50977;BME280;36992;48.200;12.418;2023-02-28T06:33:45;97282.53;;;2.17;46.38
50977;BME280;36992;48.200;12.418;2023-02-28T06:36:13;97278.00;;;2.17;46.44
50977;BME280;36992;48.200;12.418;2023-02-28T06:38:41;97280.66;;;2.17;46.50
50977;BME280;36992;48.200;12.418;2023-02-28T06:41:09;97286.56;;;2.19;46.30
50977;BME280;36992;48.200;12.418;2023-02-28T06:43:39;97282.88;;;2.20;46.40
50977;BME280;36992;48.200;12.418;2023-02-28T06:46:09;97287.16;;;2.21;46.49
50977;BME280;36992;48.200;12.418;2023-02-28T06:48:36;97287.38;;;2.20;46.62
50977;BME280;36992;48.200;12.418;2023-02-28T06:51:04;97293.50;;;2.20;46.44
50977;BME280;36992;48.200;12.418;2023-02-28T06:53:31;97292.69;;;2.20;46.31
50977;BME280;36992;48.200;12.418;2023-02-28T06:55:58;97297.22;;;2.19;46.52
50977;BME280;36992;48.200;12.418;2023-02-28T06:58:25;97299.19;;;2.24;46.22
50977;BME280;36992;48.200;12.418;2023-02-28T07:00:52;97300.44;;;2.21;46.10
50977;BME280;36992;48.200;12.418;2023-02-28T07:03:19;97310.63;;;2.24;46.25
50977;BME280;36992;48.200;12.418;2023-02-28T07:05:45;97303.69;;;2.23;46.24
50977;BME280;36992;48.200;12.418;2023-02-28T07:08:12;97309.00;;;2.23;46.27
50977;BME280;36992;48.200;12.418;2023-02-28T07:10:38;97310.63;;;2.24;46.03
50977;BME280;36992;48.200;12.418;2023-02-28T07:13:06;97308.78;;;2.25;46.01
50977;BME280;36992;48.200;12.418;2023-02-28T07:15:34;97308.56;;;2.26;46.23
50977;BME280;36992;48.200;12.418;2023-02-28T07:18:01;97309.59;;;2.25;46.05
50977;BME280;36992;48.200;12.418;2023-02-28T07:20:28;97303.25;;;2.26;46.43
50977;BME280;36992;48.200;12.418;2023-02-28T07:22:55;97299.78;;;2.26;46.30
50977;BME280;36992;48.200;12.418;2023-02-28T07:25:22;97295.03;;;2.28;46.22
50977;BME280;36992;48.200;12.418;2023-02-28T07:27:48;97295.63;;;2.30;45.79
50977;BME280;36992;48.200;12.418;2023-02-28T07:30:16;97304.41;;;2.31;45.80
50977;BME280;36992;48.200;12.418;2023-02-28T07:32:43;97305.22;;;2.31;45.76
50977;BME280;36992;48.200;12.418;2023-02-28T07:35:10;97301.75;;;2.31;45.96
50977;BME280;36992;48.200;12.418;2023-02-28T07:37:36;97297.47;;;2.29;46.02
50977;BME280;36992;48.200;12.418;2023-02-28T07:40:04;97300.34;;;2.28;45.74
50977;BME280;36992;48.200;12.418;2023-02-28T07:42:33;97306.50;;;2.28;45.74
50977;BME280;36992;48.200;12.418;2023-02-28T07:45:00;97301.16;;;2.28;46.25
50977;BME280;36992;48.200;12.418;2023-02-28T07:47:28;97308.94;;;2.30;45.88
50977;BME280;36992;48.200;12.418;2023-02-28T07:49:56;97306.06;;;2.32;45.97
50977;BME280;36992;48.200;12.418;2023-02-28T07:52:23;97302.34;;;2.33;46.36
50977;BME280;36992;48.200;12.418;2023-02-28T07:54:50;97304.56;;;2.36;46.13
50977;BME280;36992;48.200;12.418;2023-02-28T07:57:17;97298.19;;;2.37;46.09
50977;BME280;36992;48.200;12.418;2023-02-28T07:59:44;97304.34;;;2.37;45.88
50977;BME280;36992;48.200;12.418;2023-02-28T08:02:12;97299.38;;;2.41;45.94
50977;BME280;36992;48.200;12.418;2023-02-28T08:04:39;97301.47;;;2.39;45.49
50977;BME280;36992;48.200;12.418;2023-02-28T08:07:07;97298.94;;;2.44;45.81
50977;BME280;36992;48.200;12.418;2023-02-28T08:09:34;97302.03;;;2.41;45.50
50977;BME280;36992;48.200;12.418;2023-02-28T08:12:01;97304.69;;;2.41;45.46
50977;BME280;36992;48.200;12.418;2023-02-28T08:14:27;97304.47;;;2.42;45.51
50977;BME280;36992;48.200;12.418;2023-02-28T08:16:54;97307.34;;;2.41;45.41
50977;BME280;36992;48.200;12.418;2023-02-28T08:19:20;97308.97;;;2.42;45.35
50977;BME280;36992;48.200;12.418;2023-02-28T08:21:46;97314.91;;;2.44;45.46
50977;BME280;36992;48.200;12.418;2023-02-28T08:24:14;97311.19;;;2.45;45.45
50977;BME280;36992;48.200;12.418;2023-02-28T08:26:41;97316.53;;;2.45;45.44
50977;BME280;36992;48.200;12.418;2023-02-28T08:29:07;97303.81;;;2.47;45.65
50977;BME280;36992;48.200;12.418;2023-02-28T08:31:34;97311.56;;;2.49;45.37
50977;BME280;36992;48.200;12.418;2023-02-28T08:34:05;97312.50;;;2.54;45.66
50977;BME280;36992;48.200;12.418;2023-02-28T08:36:31;97316.78;;;2.55;45.71
50977;BME280;36992;48.200;12.418;2023-02-28T08:38:58;97320.03;;;2.58;45.72
50977;BME280;36992;48.200;12.418;2023-02-28T08:41:26;97322.84;;;2.63;45.11
50977;BME280;36992;48.200;12.418;2023-02-28T08:43:52;97322.25;;;2.61;45.30
50977;BME280;36992;48.200;12.418;2023-02-28T08:46:20;97324.69;;;2.62;45.08
50977;BME280;36992;48.200;12.418;2023-02-28T08:48:46;97334.06;;;2.65;45.29
50977;BME280;36992;48.200;12.418;2023-02-28T08:51:14;97332.19;;;2.65;45.56
50977;BME280;36992;48.200;12.418;2023-02-28T08:53:44;97327.69;;;2.66;45.30
50977;BME280;36992;48.200;12.418;2023-02-28T08:56:12;97327.69;;;2.66;45.35
50977;BME280;36992;48.200;12.418;2023-02-28T08:58:40;97322.75;;;2.69;44.98
50977;BME280;36992;48.200;12.418;2023-02-28T09:01:08;97333.16;;;2.71;45.04
50977;BME280;36992;48.200;12.418;2023-02-28T09:03:35;97336.41;;;2.73;45.15
50977;BME280;36992;48.200;12.418;2023-02-28T09:06:02;97330.03;;;2.74;44.97
50977;BME280;36992;48.200;12.418;2023-02-28T09:08:30;97327.50;;;2.79;45.22
50977;BME280;36992;48.200;12.418;2023-02-28T09:10:58;97335.06;;;2.82;45.35
50977;BME280;36992;48.200;12.418;2023-02-28T09:13:25;97332.97;;;2.85;44.98
50977;BME280;36992;48.200;12.418;2023-02-28T09:15:54;97328.34;;;2.92;45.10
50977;BME280;36992;48.200;12.418;2023-02-28T09:18:20;97336.34;;;2.92;45.09
50977;BME280;36992;48.200;12.418;2023-02-28T09:20:47;97335.06;;;2.94;44.95
50977;BME280;36992;48.200;12.418;2023-02-28T09:23:13;97336.47;;;2.97;44.80
50977;BME280;36992;48.200;12.418;2023-02-28T09:25:45;97337.41;;;3.03;45.01
50977;BME280;36992;48.200;12.418;2023-02-28T09:28:11;97340.69;;;3.05;45.01
50977;BME280;36992;48.200;12.418;2023-02-28T09:30:39;97340.41;;;3.06;44.62
50977;BME280;36992;48.200;12.418;2023-02-28T09:33:07;97345.44;;;3.15;44.92
50977;BME280;36992;48.200;12.418;2023-02-28T09:35:34;97342.31;;;3.18;44.74
50977;BME280;36992;48.200;12.418;2023-02-28T09:38:03;97350.66;;;3.21;44.34
50977;BME280;36992;48.200;12.418;2023-02-28T09:40:30;97351.00;;;3.25;44.43
50977;BME280;36992;48.200;12.418;2023-02-28T09:42:59;97360.38;;;3.28;44.40
50977;BME280;36992;48.200;12.418;2023-02-28T09:45:29;97360.72;;;3.31;44.52
50977;BME280;36992;48.200;12.418;2023-02-28T09:47:59;97358.91;;;3.32;44.58
50977;BME280;36992;48.200;12.418;2023-02-28T09:50:34;97365.63;;;3.34;44.07
50977;BME280;36992;48.200;12.418;2023-02-28T09:53:03;97360.06;;;3.36;44.25
50977;BME280;36992;48.200;12.418;2023-02-28T09:55:34;97371.88;;;3.40;44.41
50977;BME280;36992;48.200;12.418;2023-02-28T09:58:05;97373.88;;;3.45;44.46
50977;BME280;36992;48.200;12.418;2023-02-28T10:00:39;97382.56;;;3.52;44.42
50977;BME280;36992;48.200;12.418;2023-02-28T10:03:20;97375.25;;;3.59;44.65
50977;BME280;36992;48.200;12.418;2023-02-28T10:05:54;97376.19;;;3.65;44.31
50977;BME280;36992;48.200;12.418;2023-02-28T10:08:25;97389.97;;;3.74;44.39
50977;BME280;36992;48.200;12.418;2023-02-28T10:10:55;97380.50;;;3.78;44.23
50977;BME280;36992;48.200;12.418;2023-02-28T10:13:27;97385.13;;;3.83;43.54
50977;BME280;36992;48.200;12.418;2023-02-28T10:16:02;97392.19;;;3.89;43.82
50977;BME280;36992;48.200;12.418;2023-02-28T10:18:38;97392.53;;;3.92;43.50
50977;BME280;36992;48.200;12.418;2023-02-28T10:21:17;97388.59;;;3.95;43.76
50977;BME280;36992;48.200;12.418;2023-02-28T10:23:46;97391.75;;;3.92;42.91
50977;BME280;36992;48.200;12.418;2023-02-28T10:26:16;97383.03;;;3.97;43.56
50977;BME280;36992;48.200;12.418;2023-02-28T10:28:43;97391.03;;;3.97;43.32
50977;BME280;36992;48.200;12.418;2023-02-28T10:31:11;97386.88;;;4.01;43.61
50977;BME280;36992;48.200;12.418;2023-02-28T10:33:41;97388.50;;;4.02;43.51
50977;BME280;36992;48.200;12.418;2023-02-28T10:36:12;97390.22;;;4.08;43.72
50977;BME280;36992;48.200;12.418;2023-02-28T10:38:40;97388.13;;;4.10;43.24
50977;BME280;36992;48.200;12.418;2023-02-28T10:41:08;97385.56;;;4.15;43.81
50977;BME280;36992;48.200;12.418;2023-02-28T10:43:36;97383.03;;;4.21;43.64
50977;BME280;36992;48.200;12.418;2023-02-28T10:46:05;97381.25;;;4.26;43.26
50977;BME280;36992;48.200;12.418;2023-02-28T10:48:42;97384.88;;;4.32;43.38
50977;BME280;36992;48.200;12.418;2023-02-28T10:51:12;97388.66;;;4.36;43.46
50977;BME280;36992;48.200;12.418;2023-02-28T10:53:47;97383.22;;;4.43;43.28
50977;BME280;36992;48.200;12.418;2023-02-28T10:56:17;97383.31;;;4.48;43.13
50977;BME280;36992;48.200;12.418;2023-02-28T10:58:50;97379.94;;;4.53;43.33
50977;BME280;36992;48.200;12.418;2023-02-28T11:01:19;97380.28;;;4.56;42.85
50977;BME280;36992;48.200;12.418;2023-02-28T11:03:46;97384.91;;;4.61;43.04
50977;BME280;36992;48.200;12.418;2023-02-28T11:06:16;97373.03;;;4.69;42.74
50977;BME280;36992;48.200;12.418;2023-02-28T11:08:45;97378.72;;;4.72;42.39
50977;BME280;36992;48.200;12.418;2023-02-28T11:11:13;97379.88;;;4.77;42.49
50977;BME280;36992;48.200;12.418;2023-02-28T11:13:44;97375.66;;;4.81;42.27
50977;BME280;36992;48.200;12.418;2023-02-28T11:16:13;97377.03;;;4.83;41.86
50977;BME280;36992;48.200;12.418;2023-02-28T11:18:42;97371.00;;;4.88;42.50
50977;BME280;36992;48.200;12.418;2023-02-28T11:21:17;97375.84;;;4.91;42.57
50977;BME280;36992;48.200;12.418;2023-02-28T11:23:44;97381.19;;;4.91;41.44
50977;BME280;36992;48.200;12.418;2023-02-28T11:26:11;97370.63;;;4.96;41.83
50977;BME280;36992;48.200;12.418;2023-02-28T11:28:39;97371.78;;;5.01;41.90
50977;BME280;36992;48.200;12.418;2023-02-28T11:31:16;97368.13;;;5.07;42.15
50977;BME280;36992;48.200;12.418;2023-02-28T11:33:45;97372.66;;;5.06;42.52
50977;BME280;36992;48.200;12.418;2023-02-28T11:36:15;97366.59;;;5.11;41.76
50977;BME280;36992;48.200;12.418;2023-02-28T11:38:44;97364.25;;;5.15;41.02
50977;BME280;36992;48.200;12.418;2023-02-28T11:41:20;97352.28;;;5.17;41.94
50977;BME280;36992;48.200;12.418;2023-02-28T11:43:59;97356.09;;;5.21;41.50
50977;BME280;36992;48.200;12.418;2023-02-28T11:46:32;97358.75;;;5.21;41.92
50977;BME280;36992;48.200;12.418;2023-02-28T11:49:07;97358.25;;;5.24;41.83
50977;BME280;36992;48.200;12.418;2023-02-28T11:51:47;97352.44;;;5.28;41.54
50977;BME280;36992;48.200;12.418;2023-02-28T11:54:24;97347.19;;;5.33;41.94
50977;BME280;36992;48.200;12.418;2023-02-28T11:56:57;97344.53;;;5.33;41.15
50977;BME280;36992;48.200;12.418;2023-02-28T11:59:39;97345.16;;;5.40;41.99
50977;BME280;36992;48.200;12.418;2023-02-28T12:02:29;97343.16;;;5.47;42.48
50977;BME280;36992;48.200;12.418;2023-02-28T12:05:10;97347.66;;;5.47;41.93
50977;BME280;36992;48.200;12.418;2023-02-28T12:07:47;97349.03;;;5.49;41.46
50977;BME280;36992;48.200;12.418;2023-02-28T12:10:22;97350.66;;;5.50;41.38
50977;BME280;36992;48.200;12.418;2023-02-28T12:12:58;97344.84;;;5.53;41.25
50977;BME280;36992;48.200;12.418;2023-02-28T12:15:38;97350.50;;;5.57;41.92
50977;BME280;36992;48.200;12.418;2023-02-28T12:18:24;97349.78;;;5.62;41.97
50977;BME280;36992;48.200;12.418;2023-02-28T12:20:55;97343.94;;;5.65;41.09
50977;BME280;36992;48.200;12.418;2023-02-28T12:26:37;97335.19;;;5.70;41.14
50977;BME280;36992;48.200;12.418;2023-02-28T12:29:12;97338.69;;;5.70;41.54
50977;BME280;36992;48.200;12.418;2023-02-28T12:31:46;97330.72;;;5.75;41.74
50977;BME280;36992;48.200;12.418;2023-02-28T12:34:19;97323.28;;;5.77;41.30
50977;BME280;36992;48.200;12.418;2023-02-28T12:36:47;97324.06;;;5.78;40.97
50977;BME280;36992;48.200;12.418;2023-02-28T12:39:17;97324.38;;;5.81;40.60
50977;BME280;36992;48.200;12.418;2023-02-28T12:41:48;97325.53;;;5.86;40.98
50977;BME280;36992;48.200;12.418;2023-02-28T12:44:20;97319.94;;;5.87;41.61
50977;BME280;36992;48.200;12.418;2023-02-28T12:46:50;97313.53;;;5.88;40.66
50977;BME280;36992;48.200;12.418;2023-02-28T12:49:21;97311.41;;;5.90;40.28
50977;BME280;36992;48.200;12.418;2023-02-28T12:51:50;97316.75;;;5.90;40.63
50977;BME280;36992;48.200;12.418;2023-02-28T12:54:23;97320.81;;;5.93;40.98
50977;BME280;36992;48.200;12.418;2023-02-28T12:56:58;97320.31;;;5.96;41.24
50977;BME280;36992;48.200;12.418;2023-02-28T12:59:35;97315.53;;;5.98;40.77
50977;BME280;36992;48.200;12.418;2023-02-28T13:05:24;97314.00;;;6.02;41.23
50977;BME280;36992;48.200;12.418;2023-02-28T13:08:20;97310.84;;;6.05;41.30
50977;BME280;36992;48.200;12.418;2023-02-28T13:10:51;97304.94;;;6.03;41.11
50977;BME280;36992;48.200;12.418;2023-02-28T13:13:22;97318.84;;;6.05;40.24
50977;BME280;36992;48.200;12.418;2023-02-28T13:16:02;97319.16;;;6.09;40.82
50977;BME280;36992;48.200;12.418;2023-02-28T13:18:35;97309.53;;;6.08;40.40
50977;BME280;36992;48.200;12.418;2023-02-28T13:21:03;97313.03;;;6.09;40.06
50977;BME280;36992;48.200;12.418;2023-02-28T13:23:59;97308.31;;;6.16;41.02
50977;BME280;36992;48.200;12.418;2023-02-28T13:29:32;97315.50;;;6.15;40.78
50977;BME280;36992;48.200;12.418;2023-02-28T13:32:20;97312.09;;;6.20;41.01